createdAt,value
2017-02-03T00:00:03.468Z,0
2017-02-03T00:00:44.122Z,0
2017-02-03T00:01:24.718Z,0
2017-02-03T00:02:05.394Z,0
2017-02-03T00:02:45.971Z,0
2017-02-03T00:03:26.632Z,0
2017-02-03T00:04:07.282Z,0
2017-02-03T00:04:47.938Z,0
2017-02-03T00:05:28.592Z,0
2017-02-03T00:06:09.249Z,0
2017-02-03T00:06:49.998Z,0
2017-02-03T00:07:30.647Z,0
2017-02-03T00:08:11.203Z,0
2017-02-03T00:08:51.854Z,0
2017-02-03T00:09:32.505Z,0
2017-02-03T00:10:13.087Z,0
2017-02-03T00:10:53.810Z,0
2017-02-03T00:11:34.466Z,0
2017-02-03T00:12:15.040Z,0
2017-02-03T00:12:55.772Z,0
2017-02-03T00:13:37.344Z,0
2017-02-03T00:14:17.925Z,0
2017-02-03T00:14:58.659Z,0
2017-02-03T00:15:39.311Z,0
2017-02-03T00:16:19.867Z,0
2017-02-03T00:17:00.506Z,0
2017-02-03T00:17:41.156Z,0
2017-02-03T00:18:21.746Z,0
2017-02-03T00:19:02.462Z,0
2017-02-03T00:19:43.117Z,0
2017-02-03T00:20:23.773Z,0
2017-02-03T00:21:04.417Z,0
2017-02-03T00:21:45.180Z,0
2017-02-03T00:22:26.855Z,0
2017-02-03T00:23:07.546Z,0
2017-02-03T00:23:48.165Z,0
2017-02-03T00:24:28.708Z,0
2017-02-03T00:25:09.436Z,0
2017-02-03T00:25:50.001Z,0
2017-02-03T00:26:30.682Z,0
2017-02-03T00:27:11.422Z,0
2017-02-03T00:27:52.006Z,0
2017-02-03T00:28:32.833Z,0
2017-02-03T00:29:13.493Z,0
2017-02-03T00:29:54.167Z,0
2017-02-03T00:30:34.899Z,0
2017-02-03T00:31:15.555Z,0
2017-02-03T00:31:56.206Z,0
2017-02-03T00:32:36.860Z,0
2017-02-03T00:33:17.433Z,0
2017-02-03T00:33:58.108Z,0
2017-02-03T00:34:38.819Z,0
2017-02-03T00:35:19.430Z,0
2017-02-03T00:36:00.034Z,0
2017-02-03T00:36:40.618Z,0
2017-02-03T00:37:21.285Z,0
2017-02-03T00:38:02.011Z,0
2017-02-03T00:38:42.648Z,0
2017-02-03T00:39:23.181Z,0
2017-02-03T00:40:03.924Z,0
2017-02-03T00:40:44.590Z,0
2017-02-03T00:41:25.341Z,0
2017-02-03T00:42:05.924Z,0
2017-02-03T00:42:46.614Z,0
2017-02-03T00:43:27.307Z,0
2017-02-03T00:44:08.053Z,0
2017-02-03T00:44:48.624Z,0
2017-02-03T00:45:29.263Z,0
2017-02-03T00:46:10.009Z,0
2017-02-03T00:46:50.597Z,0
2017-02-03T00:47:31.325Z,0
2017-02-03T00:48:12.081Z,0
2017-02-03T00:48:52.835Z,0
2017-02-03T00:49:33.478Z,0
2017-02-03T00:50:14.139Z,0
2017-02-03T00:50:54.792Z,0
2017-02-03T00:51:35.548Z,0
2017-02-03T00:52:16.303Z,0
2017-02-03T00:52:57.067Z,0
2017-02-03T00:53:37.715Z,0
2017-02-03T00:54:18.366Z,0
2017-02-03T00:54:59.113Z,0
2017-02-03T00:55:39.772Z,0
2017-02-03T00:56:20.435Z,0
2017-02-03T00:57:01.079Z,0
2017-02-03T00:57:41.725Z,0
2017-02-03T00:58:22.282Z,0
2017-02-03T00:59:02.998Z,0
2017-02-03T00:59:44.717Z,0
2017-02-03T01:00:25.467Z,0
2017-02-03T01:01:06.086Z,0
2017-02-03T01:01:46.617Z,0
2017-02-03T01:02:27.267Z,0
2017-02-03T01:03:07.971Z,0
2017-02-03T01:03:48.734Z,0
2017-02-03T01:04:29.312Z,0
2017-02-03T01:05:09.988Z,0
2017-02-03T01:05:50.692Z,0
2017-02-03T01:06:31.450Z,0
2017-02-03T01:07:12.018Z,0
2017-02-03T01:07:52.716Z,0
2017-02-03T01:08:33.404Z,0
2017-02-03T01:09:14.004Z,0
2017-02-03T01:09:54.624Z,0
2017-02-03T01:10:35.332Z,0
2017-02-03T01:11:16.042Z,0
2017-02-03T01:11:56.631Z,0
2017-02-03T01:12:37.322Z,0
2017-02-03T01:13:18.076Z,0
2017-02-03T01:13:58.736Z,0
2017-02-03T01:14:39.480Z,0
2017-02-03T01:15:20.235Z,0
2017-02-03T01:16:00.900Z,0
2017-02-03T01:16:41.549Z,0
2017-02-03T01:17:22.307Z,0
2017-02-03T01:18:03.051Z,0
2017-02-03T01:18:43.710Z,0
2017-02-03T01:19:24.370Z,0
2017-02-03T01:20:05.123Z,0
2017-02-03T01:20:45.779Z,0
2017-02-03T01:21:26.423Z,0
2017-02-03T01:22:07.189Z,0
2017-02-03T01:22:47.944Z,0
2017-02-03T01:23:28.512Z,0
2017-02-03T01:24:09.185Z,0
2017-02-03T01:24:49.752Z,0
2017-02-03T01:25:30.440Z,0
2017-02-03T01:26:11.024Z,0
2017-02-03T01:26:51.706Z,0
2017-02-03T01:27:32.403Z,0
2017-02-03T01:28:13.084Z,0
2017-02-03T01:28:53.913Z,0
2017-02-03T01:29:34.564Z,0
2017-02-03T01:30:15.231Z,0
2017-02-03T01:30:55.985Z,0
2017-02-03T01:31:36.747Z,0
2017-02-03T01:32:17.488Z,0
2017-02-03T01:32:58.250Z,0
2017-02-03T01:33:39.003Z,0
2017-02-03T01:34:19.748Z,0
2017-02-03T01:35:00.412Z,0
2017-02-03T01:35:41.171Z,0
2017-02-03T01:36:22.832Z,0
2017-02-03T01:37:03.607Z,0
2017-02-03T01:37:44.252Z,0
2017-02-03T01:38:25.009Z,0
2017-02-03T01:39:05.764Z,0
2017-02-03T01:39:46.424Z,0
2017-02-03T01:40:27.062Z,0
2017-02-03T01:41:07.828Z,0
2017-02-03T01:41:48.569Z,0
2017-02-03T01:42:29.233Z,0
2017-02-03T01:43:09.989Z,0
2017-02-03T01:43:51.656Z,0
2017-02-03T01:44:32.411Z,0
2017-02-03T01:45:13.069Z,0
2017-02-03T01:45:53.824Z,0
2017-02-03T01:46:34.592Z,0
2017-02-03T01:47:15.334Z,0
2017-02-03T01:47:56.086Z,0
2017-02-03T01:48:37.763Z,0
2017-02-03T01:49:18.527Z,0
2017-02-03T01:49:59.284Z,0
2017-02-03T01:50:40.027Z,0
2017-02-03T01:51:20.692Z,0
2017-02-03T01:52:01.446Z,0
2017-02-03T01:52:42.207Z,0
2017-02-03T01:53:22.780Z,0
2017-02-03T01:54:03.462Z,0
2017-02-03T01:54:44.051Z,0
2017-02-03T01:55:24.704Z,0
2017-02-03T01:56:05.287Z,0
2017-02-03T01:56:45.967Z,0
2017-02-03T01:57:26.554Z,0
2017-02-03T01:58:07.217Z,0
2017-02-03T01:58:48.622Z,0
2017-02-03T01:59:29.229Z,0
2017-02-03T02:00:09.891Z,0
2017-02-03T02:00:50.544Z,0
2017-02-03T02:01:31.196Z,0
2017-02-03T02:02:11.848Z,0
2017-02-03T02:02:52.504Z,0
2017-02-03T02:03:33.080Z,0
2017-02-03T02:04:13.709Z,0
2017-02-03T02:04:54.360Z,0
2017-02-03T02:05:34.937Z,0
2017-02-03T02:06:15.557Z,0
2017-02-03T02:06:56.231Z,0
2017-02-03T02:07:36.819Z,0
2017-02-03T02:08:17.431Z,0
2017-02-03T02:08:58.079Z,0
2017-02-03T02:09:38.649Z,0
2017-02-03T02:10:19.237Z,0
2017-02-03T02:10:59.821Z,0
2017-02-03T02:11:40.481Z,0
2017-02-03T02:12:21.064Z,0
2017-02-03T02:13:01.736Z,0
2017-02-03T02:13:42.341Z,0
2017-02-03T02:14:22.995Z,0
2017-02-03T02:15:03.646Z,0
2017-02-03T02:15:44.301Z,0
2017-02-03T02:16:24.949Z,0
2017-02-03T02:17:05.608Z,0
2017-02-03T02:17:46.259Z,0
2017-02-03T02:18:26.845Z,0
2017-02-03T02:19:07.519Z,0
2017-02-03T02:19:48.108Z,0
2017-02-03T02:20:28.769Z,0
2017-02-03T02:21:09.341Z,0
2017-02-03T02:21:49.958Z,0
2017-02-03T02:22:30.538Z,0
2017-02-03T02:23:11.199Z,0
2017-02-03T02:23:51.839Z,0
2017-02-03T02:24:33.414Z,0
2017-02-03T02:25:14.077Z,0
2017-02-03T02:25:54.735Z,0
2017-02-03T02:26:35.395Z,0
2017-02-03T02:27:16.041Z,0
2017-02-03T02:27:56.679Z,0
2017-02-03T02:28:37.344Z,0
2017-02-03T02:29:17.994Z,0
2017-02-03T02:29:58.642Z,0
2017-02-03T02:30:39.300Z,0
2017-02-03T02:31:21.020Z,0
2017-02-03T02:32:01.629Z,0
2017-02-03T02:32:42.283Z,0
2017-02-03T02:33:22.936Z,0
2017-02-03T02:34:03.593Z,0
2017-02-03T02:34:45.266Z,0
2017-02-03T02:35:26.941Z,0
2017-02-03T02:36:08.621Z,0
2017-02-03T02:36:49.270Z,0
2017-02-03T02:37:31.857Z,0
2017-02-03T02:38:12.528Z,0
2017-02-03T02:38:53.091Z,0
2017-02-03T02:39:33.719Z,0
2017-02-03T02:40:14.366Z,0
2017-02-03T02:40:54.947Z,0
2017-02-03T02:41:35.577Z,0
2017-02-03T02:42:16.226Z,0
2017-02-03T02:42:56.803Z,0
2017-02-03T02:43:37.426Z,0
2017-02-03T02:44:18.088Z,0
2017-02-03T02:44:58.735Z,0
2017-02-03T02:45:39.380Z,0
2017-02-03T02:46:20.040Z,0
2017-02-03T02:47:00.698Z,0
2017-02-03T02:47:41.342Z,0
2017-02-03T02:48:22.000Z,0
2017-02-03T02:49:04.610Z,0
2017-02-03T02:49:45.175Z,0
2017-02-03T02:50:25.756Z,0
2017-02-03T02:51:06.353Z,0
2017-02-03T02:51:47.005Z,0
2017-02-03T02:52:27.581Z,0
2017-02-03T02:53:08.157Z,0
2017-02-03T02:53:48.758Z,0
2017-02-03T02:54:29.425Z,0
2017-02-03T02:55:09.988Z,0
2017-02-03T02:55:50.564Z,0
2017-02-03T02:56:31.197Z,0
2017-02-03T02:57:11.820Z,0
2017-02-03T02:57:52.393Z,0
2017-02-03T02:58:32.984Z,0
2017-02-03T02:59:13.575Z,0
2017-02-03T02:59:54.222Z,0
2017-02-03T03:00:34.800Z,0
2017-02-03T03:01:15.411Z,0
2017-02-03T03:01:57.007Z,0
2017-02-03T03:02:37.578Z,0
2017-02-03T03:03:18.170Z,0
2017-02-03T03:03:58.759Z,0
2017-02-03T03:04:39.411Z,0
2017-02-03T03:05:20.061Z,0
2017-02-03T03:06:00.723Z,0
2017-02-03T03:06:42.387Z,0
2017-02-03T03:07:23.057Z,0
2017-02-03T03:08:03.693Z,0
2017-02-03T03:08:44.372Z,0
2017-02-03T03:09:25.004Z,0
2017-02-03T03:10:05.571Z,0
2017-02-03T03:10:46.190Z,0
2017-02-03T03:11:26.855Z,0
2017-02-03T03:12:07.529Z,0
2017-02-03T03:12:48.115Z,0
2017-02-03T03:13:28.771Z,0
2017-02-03T03:14:09.361Z,0
2017-02-03T03:14:50.022Z,0
2017-02-03T03:15:30.677Z,0
2017-02-03T03:16:11.331Z,0
2017-02-03T03:16:51.998Z,0
2017-02-03T03:17:32.651Z,0
2017-02-03T03:18:13.302Z,0
2017-02-03T03:18:53.956Z,0
2017-02-03T03:19:34.531Z,0
2017-02-03T03:20:15.209Z,0
2017-02-03T03:20:55.778Z,0
2017-02-03T03:21:36.412Z,0
2017-02-03T03:22:18.044Z,0
2017-02-03T03:22:59.716Z,0
2017-02-03T03:23:40.272Z,0
2017-02-03T03:24:20.869Z,0
2017-02-03T03:25:02.499Z,0
2017-02-03T03:25:43.169Z,0
2017-02-03T03:26:23.702Z,0
2017-02-03T03:27:04.296Z,0
2017-02-03T03:27:44.864Z,0
2017-02-03T03:28:26.540Z,0
2017-02-03T03:29:09.159Z,0
2017-02-03T03:29:49.801Z,0
2017-02-03T03:30:31.511Z,0
2017-02-03T03:31:12.154Z,0
2017-02-03T03:31:52.813Z,0
2017-02-03T03:32:33.463Z,0
2017-02-03T03:33:14.124Z,0
2017-02-03T03:33:54.776Z,0
2017-02-03T03:34:35.339Z,0
2017-02-03T03:35:15.964Z,0
2017-02-03T03:35:56.550Z,0
2017-02-03T03:36:37.183Z,0
2017-02-03T03:37:17.833Z,0
2017-02-03T03:37:58.408Z,0
2017-02-03T03:38:38.963Z,0
2017-02-03T03:39:19.587Z,0
2017-02-03T03:40:00.146Z,0
2017-02-03T03:40:40.768Z,0
2017-02-03T03:41:22.468Z,0
2017-02-03T03:42:03.042Z,0
2017-02-03T03:42:44.698Z,0
2017-02-03T03:43:25.349Z,0
2017-02-03T03:44:05.995Z,0
2017-02-03T03:44:46.656Z,0
2017-02-03T03:45:27.221Z,0
2017-02-03T03:46:07.919Z,0
2017-02-03T03:46:48.554Z,0
2017-02-03T03:47:29.213Z,0
2017-02-03T03:48:09.868Z,0
2017-02-03T03:48:50.546Z,0
2017-02-03T03:49:31.228Z,0
2017-02-03T03:50:11.871Z,0
2017-02-03T03:50:52.457Z,0
2017-02-03T03:51:34.166Z,0
2017-02-03T03:52:14.860Z,0
2017-02-03T03:52:55.543Z,0
2017-02-03T03:53:36.076Z,0
2017-02-03T03:54:16.661Z,0
2017-02-03T03:54:57.318Z,0
2017-02-03T03:55:37.968Z,0
2017-02-03T03:56:18.639Z,0
2017-02-03T03:56:59.267Z,0
2017-02-03T03:57:39.923Z,0
2017-02-03T03:58:20.582Z,0
2017-02-03T03:59:01.226Z,0
2017-02-03T03:59:41.886Z,0
2017-02-03T04:00:22.534Z,0
2017-02-03T04:01:04.230Z,0
2017-02-03T04:01:44.821Z,0
2017-02-03T04:02:26.489Z,0
2017-02-03T04:03:07.143Z,0
2017-02-03T04:03:47.715Z,0
2017-02-03T04:04:28.295Z,0
2017-02-03T04:05:08.907Z,0
2017-02-03T04:05:49.553Z,0
2017-02-03T04:06:30.123Z,0
2017-02-03T04:07:11.715Z,0
2017-02-03T04:07:52.346Z,0
2017-02-03T04:08:32.979Z,0
2017-02-03T04:09:13.552Z,0
2017-02-03T04:09:55.154Z,0
2017-02-03T04:10:35.772Z,0
2017-02-03T04:11:16.421Z,0
2017-02-03T04:11:56.985Z,0
2017-02-03T04:12:37.573Z,0
2017-02-03T04:13:18.165Z,0
2017-02-03T04:13:58.823Z,0
2017-02-03T04:14:39.484Z,0
2017-02-03T04:15:20.048Z,0
2017-02-03T04:16:00.718Z,0
2017-02-03T04:16:41.261Z,0
2017-02-03T04:17:21.890Z,0
2017-02-03T04:18:02.538Z,0
2017-02-03T04:18:43.190Z,0
2017-02-03T04:19:23.844Z,0
2017-02-03T04:20:04.414Z,0
2017-02-03T04:20:45.002Z,0
2017-02-03T04:21:25.560Z,0
2017-02-03T04:22:06.147Z,0
2017-02-03T04:22:46.713Z,0
2017-02-03T04:23:28.377Z,0
2017-02-03T04:24:09.028Z,0
2017-02-03T04:24:49.684Z,0
2017-02-03T04:25:30.334Z,0
2017-02-03T04:26:10.904Z,0
2017-02-03T04:26:51.538Z,0
2017-02-03T04:27:32.189Z,0
2017-02-03T04:28:12.846Z,0
2017-02-03T04:28:53.488Z,0
2017-02-03T04:29:34.150Z,0
2017-02-03T04:30:15.822Z,0
2017-02-03T04:30:56.480Z,0
2017-02-03T04:31:37.132Z,0
2017-02-03T04:32:17.786Z,0
2017-02-03T04:32:58.441Z,0
2017-02-03T04:33:39.086Z,0
2017-02-03T04:34:19.741Z,0
2017-02-03T04:35:00.398Z,0
2017-02-03T04:35:41.046Z,0
2017-02-03T04:36:21.706Z,0
2017-02-03T04:37:02.355Z,0
2017-02-03T04:37:42.913Z,0
2017-02-03T04:38:23.557Z,0
2017-02-03T04:39:04.214Z,0
2017-02-03T04:39:44.791Z,0
2017-02-03T04:40:25.468Z,0
2017-02-03T04:41:06.059Z,0
2017-02-03T04:41:46.619Z,0
2017-02-03T04:42:27.189Z,0
2017-02-03T04:43:07.821Z,0
2017-02-03T04:43:48.386Z,0
2017-02-03T04:44:28.964Z,0
2017-02-03T04:45:09.575Z,0
2017-02-03T04:45:50.229Z,0
2017-02-03T04:46:30.786Z,0
2017-02-03T04:47:11.391Z,0
2017-02-03T04:47:51.984Z,0
2017-02-03T04:48:32.634Z,0
2017-02-03T04:49:13.198Z,0
2017-02-03T04:49:53.827Z,0
2017-02-03T04:50:34.389Z,0
2017-02-03T04:51:15.041Z,0
2017-02-03T04:51:55.601Z,0
2017-02-03T04:52:36.204Z,0
2017-02-03T04:53:16.798Z,0
2017-02-03T04:53:57.450Z,0
2017-02-03T04:54:38.102Z,0
2017-02-03T04:55:18.691Z,0
2017-02-03T04:55:59.305Z,0
2017-02-03T04:56:39.962Z,0
2017-02-03T04:57:20.609Z,0
2017-02-03T04:58:01.267Z,0
2017-02-03T04:58:41.918Z,0
2017-02-03T04:59:22.480Z,0
2017-02-03T05:00:03.072Z,0
2017-02-03T05:00:43.670Z,0
2017-02-03T05:01:24.325Z,0
2017-02-03T05:02:04.910Z,0
2017-02-03T05:02:45.587Z,0
2017-02-03T05:03:26.187Z,0
2017-02-03T05:04:06.829Z,0
2017-02-03T05:04:47.485Z,0
2017-02-03T05:05:28.137Z,0
2017-02-03T05:06:08.696Z,0
2017-02-03T05:06:49.347Z,0
2017-02-03T05:07:30.002Z,0
2017-02-03T05:08:10.666Z,0
2017-02-03T05:08:51.224Z,0
2017-02-03T05:09:31.920Z,0
2017-02-03T05:10:13.530Z,0
2017-02-03T05:10:54.182Z,0
2017-02-03T05:11:34.754Z,0
2017-02-03T05:12:15.339Z,0
2017-02-03T05:12:56.970Z,0
2017-02-03T05:13:37.617Z,0
2017-02-03T05:14:18.271Z,0
2017-02-03T05:14:58.924Z,0
2017-02-03T05:15:39.572Z,0
2017-02-03T05:16:20.226Z,0
2017-02-03T05:17:00.787Z,0
2017-02-03T05:17:41.440Z,0
2017-02-03T05:18:23.101Z,0
2017-02-03T05:19:03.672Z,0
2017-02-03T05:19:44.322Z,0
2017-02-03T05:20:24.975Z,0
2017-02-03T05:21:05.540Z,0
2017-02-03T05:21:47.196Z,0
2017-02-03T05:22:28.877Z,0
2017-02-03T05:23:09.440Z,0
2017-02-03T05:23:50.083Z,0
2017-02-03T05:24:30.735Z,0
2017-02-03T05:25:11.374Z,0
2017-02-03T05:25:52.028Z,0
2017-02-03T05:26:32.696Z,0
2017-02-03T05:27:13.346Z,0
2017-02-03T05:27:53.993Z,0
2017-02-03T05:28:34.647Z,0
2017-02-03T05:29:15.209Z,0
2017-02-03T05:29:55.798Z,0
2017-02-03T05:30:36.406Z,0
2017-02-03T05:31:17.049Z,0
2017-02-03T05:31:57.619Z,0
2017-02-03T05:32:38.207Z,0
2017-02-03T05:33:18.817Z,0
2017-02-03T05:33:59.456Z,96
2017-02-03T05:34:40.114Z,0
2017-02-03T05:35:20.772Z,0
2017-02-03T05:36:01.338Z,0
2017-02-03T05:36:41.914Z,0
2017-02-03T05:37:22.525Z,0
2017-02-03T05:38:03.170Z,0
2017-02-03T05:38:43.825Z,0
2017-02-03T05:39:24.478Z,0
2017-02-03T05:40:05.130Z,0
2017-02-03T05:40:45.784Z,0
2017-02-03T05:41:26.441Z,0
2017-02-03T05:42:07.015Z,0
2017-02-03T05:42:48.671Z,0
2017-02-03T05:43:29.319Z,0
2017-02-03T05:44:09.918Z,0
2017-02-03T05:44:50.589Z,0
2017-02-03T05:45:31.171Z,0
2017-02-03T05:46:11.834Z,0
2017-02-03T05:46:52.387Z,0
2017-02-03T05:47:33.018Z,0
2017-02-03T05:48:13.687Z,0
2017-02-03T05:48:54.335Z,0
2017-02-03T05:49:34.985Z,0
2017-02-03T05:50:15.646Z,0
2017-02-03T05:50:56.291Z,0
2017-02-03T05:51:36.950Z,0
2017-02-03T05:52:17.601Z,0
2017-02-03T05:52:58.177Z,0
2017-02-03T05:53:38.807Z,0
2017-02-03T05:54:20.493Z,0
2017-02-03T05:55:01.136Z,0
2017-02-03T05:55:41.786Z,0
2017-02-03T05:56:22.437Z,0
2017-02-03T05:57:03.102Z,0
2017-02-03T05:57:43.748Z,0
2017-02-03T05:58:24.389Z,0
2017-02-03T05:59:05.079Z,0
2017-02-03T05:59:45.705Z,0
2017-02-03T06:00:26.263Z,0
2017-02-03T06:01:06.850Z,0
2017-02-03T06:01:47.461Z,0
2017-02-03T06:02:28.119Z,0
2017-02-03T06:03:08.657Z,0
2017-02-03T06:03:49.261Z,0
2017-02-03T06:04:29.874Z,0
2017-02-03T06:05:10.519Z,0
2017-02-03T06:05:51.194Z,0
2017-02-03T06:06:32.845Z,0
2017-02-03T06:07:13.493Z,0
2017-02-03T06:07:54.148Z,0
2017-02-03T06:08:35.830Z,0
2017-02-03T06:09:16.488Z,0
2017-02-03T06:09:57.133Z,0
2017-02-03T06:10:37.781Z,0
2017-02-03T06:11:18.431Z,0
2017-02-03T06:11:59.099Z,0
2017-02-03T06:12:39.743Z,0
2017-02-03T06:13:20.319Z,0
2017-02-03T06:14:00.974Z,0
2017-02-03T06:14:42.627Z,0
2017-02-03T06:15:24.315Z,0
2017-02-03T06:16:04.954Z,0
2017-02-03T06:16:45.606Z,0
2017-02-03T06:17:26.270Z,0
2017-02-03T06:18:06.919Z,0
2017-02-03T06:18:48.600Z,0
2017-02-03T06:19:30.268Z,0
2017-02-03T06:20:10.926Z,0
2017-02-03T06:20:51.494Z,0
2017-02-03T06:21:32.137Z,0
2017-02-03T06:22:12.782Z,0
2017-02-03T06:22:53.431Z,0
2017-02-03T06:23:34.090Z,0
2017-02-03T06:24:14.665Z,0
2017-02-03T06:24:55.291Z,0
2017-02-03T06:25:35.962Z,0
2017-02-03T06:26:16.535Z,0
2017-02-03T06:26:57.152Z,0
2017-02-03T06:27:37.712Z,0
2017-02-03T06:28:19.397Z,0
2017-02-03T06:28:59.964Z,0
2017-02-03T06:29:41.611Z,0
2017-02-03T06:30:22.256Z,0
2017-02-03T06:31:02.897Z,0
2017-02-03T06:31:43.563Z,0
2017-02-03T06:32:24.214Z,0
2017-02-03T06:33:04.868Z,0
2017-02-03T06:33:45.517Z,0
2017-02-03T06:34:26.081Z,0
2017-02-03T06:35:06.690Z,0
2017-02-03T06:35:47.264Z,0
2017-02-03T06:36:27.938Z,0
2017-02-03T06:37:08.511Z,0
2017-02-03T06:37:49.211Z,0
2017-02-03T06:38:29.784Z,0
2017-02-03T06:39:10.438Z,0
2017-02-03T06:39:51.087Z,4
2017-02-03T06:40:31.751Z,4
2017-02-03T06:41:13.415Z,4
2017-02-03T06:41:54.069Z,4
2017-02-03T06:42:35.775Z,4
2017-02-03T06:43:16.405Z,4
2017-02-03T06:43:57.088Z,0
2017-02-03T06:44:37.711Z,0
2017-02-03T06:45:18.361Z,4
2017-02-03T06:45:59.016Z,4
2017-02-03T06:46:39.681Z,4
2017-02-03T06:47:20.326Z,4
2017-02-03T06:48:00.971Z,8
2017-02-03T06:48:41.533Z,8
2017-02-03T06:49:22.123Z,8
2017-02-03T06:50:02.729Z,4
2017-02-03T06:50:44.410Z,8
2017-02-03T06:51:25.000Z,8
2017-02-03T06:52:05.671Z,12
2017-02-03T06:52:46.360Z,8
2017-02-03T06:53:28.053Z,8
2017-02-03T06:54:08.607Z,12
2017-02-03T06:54:49.187Z,12
2017-02-03T06:55:29.790Z,12
2017-02-03T06:56:10.451Z,16
2017-02-03T06:56:51.014Z,12
2017-02-03T06:57:31.706Z,16
2017-02-03T06:58:13.444Z,20
2017-02-03T06:58:54.089Z,20
2017-02-03T06:59:34.742Z,20
2017-02-03T07:00:15.390Z,20
2017-02-03T07:00:55.956Z,28
2017-02-03T07:01:36.585Z,32
2017-02-03T07:02:17.251Z,36
2017-02-03T07:02:57.914Z,36
2017-02-03T07:03:38.657Z,40
2017-02-03T07:04:19.215Z,44
2017-02-03T07:04:59.917Z,48
2017-02-03T07:05:40.607Z,48
2017-02-03T07:06:21.278Z,48
2017-02-03T07:07:01.851Z,52
2017-02-03T07:07:42.522Z,52
2017-02-03T07:08:23.236Z,56
2017-02-03T07:09:04.905Z,64
2017-02-03T07:09:45.484Z,72
2017-02-03T07:10:28.229Z,80
2017-02-03T07:11:09.944Z,84
2017-02-03T07:11:51.625Z,92
2017-02-03T07:12:32.174Z,96
2017-02-03T07:13:12.862Z,104
2017-02-03T07:13:53.566Z,112
2017-02-03T07:14:40.061Z,124
2017-02-03T07:15:20.630Z,132
2017-02-03T07:16:01.220Z,144
2017-02-03T07:16:41.882Z,152
2017-02-03T07:17:22.515Z,164
2017-02-03T07:18:03.170Z,172
2017-02-03T07:18:43.842Z,184
2017-02-03T07:19:24.472Z,196
2017-02-03T07:20:05.127Z,204
2017-02-03T07:20:45.806Z,216
2017-02-03T07:21:26.441Z,224
2017-02-03T07:22:07.086Z,236
2017-02-03T07:22:47.727Z,244
2017-02-03T07:23:28.415Z,256
2017-02-03T07:24:09.167Z,264
2017-02-03T07:24:49.801Z,276
2017-02-03T07:25:30.448Z,288
2017-02-03T07:26:11.107Z,308
2017-02-03T07:26:51.757Z,320
2017-02-03T07:27:32.478Z,340
2017-02-03T07:28:13.287Z,348
2017-02-03T07:28:55.192Z,356
2017-02-03T07:29:38.111Z,364
2017-02-03T07:30:18.763Z,368
2017-02-03T07:30:59.413Z,376
2017-02-03T07:31:40.374Z,380
2017-02-03T07:32:21.034Z,384
2017-02-03T07:33:01.680Z,384
2017-02-03T07:33:42.329Z,384
2017-02-03T07:34:22.984Z,376
2017-02-03T07:35:03.645Z,364
2017-02-03T07:35:44.296Z,356
2017-02-03T07:36:24.868Z,340
2017-02-03T07:37:05.493Z,332
2017-02-03T07:37:46.246Z,336
2017-02-03T07:38:26.901Z,340
2017-02-03T07:39:07.569Z,336
2017-02-03T07:39:48.207Z,328
2017-02-03T07:40:28.861Z,316
2017-02-03T07:41:09.512Z,308
2017-02-03T07:41:50.179Z,304
2017-02-03T07:42:30.825Z,312
2017-02-03T07:43:11.473Z,316
2017-02-03T07:43:52.133Z,332
2017-02-03T07:44:32.700Z,344
2017-02-03T07:45:13.429Z,344
2017-02-03T07:45:54.081Z,336
2017-02-03T07:46:34.628Z,336
2017-02-03T07:47:15.343Z,332
2017-02-03T07:47:56.022Z,336
2017-02-03T07:48:36.695Z,348
2017-02-03T07:49:17.252Z,360
2017-02-03T07:49:57.996Z,368
2017-02-03T07:50:38.653Z,368
2017-02-03T07:51:19.238Z,364
2017-02-03T07:51:59.964Z,348
2017-02-03T07:52:40.617Z,340
2017-02-03T07:53:21.189Z,340
2017-02-03T07:54:02.845Z,348
2017-02-03T07:54:43.490Z,356
2017-02-03T07:55:24.141Z,356
2017-02-03T07:56:04.799Z,348
2017-02-03T07:56:45.455Z,352
2017-02-03T07:57:26.210Z,344
2017-02-03T07:58:06.959Z,344
2017-02-03T07:58:47.614Z,360
2017-02-03T07:59:28.186Z,396
2017-02-03T08:00:08.813Z,420
2017-02-03T08:00:49.467Z,436
2017-02-03T08:01:30.018Z,456
2017-02-03T08:02:11.697Z,504
2017-02-03T08:02:52.353Z,536
2017-02-03T08:03:32.927Z,572
2017-02-03T08:04:13.553Z,600
2017-02-03T08:04:54.215Z,624
2017-02-03T08:05:34.978Z,652
2017-02-03T08:06:15.713Z,728
2017-02-03T08:06:56.376Z,820
2017-02-03T08:07:37.029Z,900
2017-02-03T08:08:17.777Z,952
2017-02-03T08:08:58.610Z,996
2017-02-03T08:09:39.222Z,1044
2017-02-03T08:10:19.913Z,1104
2017-02-03T08:11:01.626Z,1180
2017-02-03T08:11:42.378Z,1268
2017-02-03T08:12:22.951Z,1352
2017-02-03T08:13:04.603Z,1424
2017-02-03T08:13:45.257Z,1468
2017-02-03T08:14:25.828Z,1464
2017-02-03T08:15:08.565Z,1400
2017-02-03T08:15:49.268Z,1324
2017-02-03T08:16:29.912Z,1252
2017-02-03T08:17:10.479Z,1184
2017-02-03T08:17:51.171Z,1148
2017-02-03T08:18:31.951Z,1168
2017-02-03T08:19:13.655Z,1232
2017-02-03T08:19:54.231Z,1316
2017-02-03T08:20:34.828Z,1400
2017-02-03T08:21:16.535Z,1452
2017-02-03T08:22:02.001Z,1552
2017-02-03T08:22:42.555Z,1508
2017-02-03T08:23:23.156Z,1420
2017-02-03T08:24:03.874Z,1248
2017-02-03T08:24:44.447Z,1180
2017-02-03T08:25:25.164Z,1136
2017-02-03T08:26:05.814Z,1096
2017-02-03T08:26:47.490Z,1060
2017-02-03T08:27:28.146Z,1040
2017-02-03T08:28:08.798Z,1024
2017-02-03T08:28:50.476Z,1008
2017-02-03T08:29:31.129Z,992
2017-02-03T08:30:11.782Z,976
2017-02-03T08:30:52.529Z,964
2017-02-03T08:31:33.190Z,952
2017-02-03T08:32:13.843Z,948
2017-02-03T08:32:54.510Z,956
2017-02-03T08:33:35.143Z,976
2017-02-03T08:34:15.800Z,1012
2017-02-03T08:34:57.482Z,1056
2017-02-03T08:35:38.123Z,1124
2017-02-03T08:36:18.781Z,1200
2017-02-03T08:36:59.476Z,1288
2017-02-03T08:37:40.190Z,1344
2017-02-03T08:38:20.847Z,1404
2017-02-03T08:39:01.508Z,1456
2017-02-03T08:39:42.152Z,1492
2017-02-03T08:40:22.802Z,1508
2017-02-03T08:41:03.484Z,1508
2017-02-03T08:41:44.124Z,1480
2017-02-03T08:42:24.774Z,1436
2017-02-03T08:43:05.415Z,1384
2017-02-03T08:43:46.068Z,1356
2017-02-03T08:44:26.635Z,1356
2017-02-03T08:45:07.232Z,1376
2017-02-03T08:45:47.820Z,1404
2017-02-03T08:46:28.485Z,1440
2017-02-03T08:47:09.058Z,1480
2017-02-03T08:47:49.731Z,1528
2017-02-03T08:48:30.329Z,1592
2017-02-03T08:49:10.980Z,1660
2017-02-03T08:49:51.546Z,1724
2017-02-03T08:50:32.188Z,1792
2017-02-03T08:51:12.873Z,1844
2017-02-03T08:51:53.436Z,1884
2017-02-03T08:52:34.042Z,1904
2017-02-03T08:53:14.695Z,1916
2017-02-03T08:53:55.243Z,1904
2017-02-03T08:54:35.896Z,1884
2017-02-03T08:55:16.546Z,1892
2017-02-03T08:55:58.121Z,1836
2017-02-03T08:56:38.787Z,1832
2017-02-03T08:57:19.456Z,1860
2017-02-03T08:58:01.034Z,1952
2017-02-03T08:58:41.657Z,2068
2017-02-03T08:59:23.215Z,2180
2017-02-03T09:00:03.787Z,2240
2017-02-03T09:00:44.345Z,2220
2017-02-03T09:01:24.968Z,2144
2017-02-03T09:02:05.638Z,2100
2017-02-03T09:02:47.327Z,2128
2017-02-03T09:03:27.908Z,2124
2017-02-03T09:04:09.495Z,2236
2017-02-03T09:04:51.141Z,2192
2017-02-03T09:05:32.821Z,2284
2017-02-03T09:06:14.466Z,2244
2017-02-03T09:06:56.087Z,2164
2017-02-03T09:07:36.676Z,2060
2017-02-03T09:08:17.395Z,1876
2017-02-03T09:08:58.104Z,1884
2017-02-03T09:09:38.713Z,1884
2017-02-03T09:10:19.386Z,1872
2017-02-03T09:10:59.972Z,1888
2017-02-03T09:11:40.621Z,1916
2017-02-03T09:12:21.185Z,1992
2017-02-03T09:13:01.771Z,1992
2017-02-03T09:13:42.365Z,1908
2017-02-03T09:14:23.043Z,1756
2017-02-03T09:15:03.673Z,1560
2017-02-03T09:15:44.328Z,1404
2017-02-03T09:16:24.985Z,1296
2017-02-03T09:17:06.665Z,1232
2017-02-03T09:17:47.331Z,1192
2017-02-03T09:18:27.984Z,1156
2017-02-03T09:19:08.624Z,1136
2017-02-03T09:19:49.278Z,1108
2017-02-03T09:20:30.862Z,1080
2017-02-03T09:21:13.458Z,1100
2017-02-03T09:21:54.090Z,1096
2017-02-03T09:22:34.746Z,1092
2017-02-03T09:23:15.405Z,1100
2017-02-03T09:23:57.994Z,1168
2017-02-03T09:24:39.677Z,1264
2017-02-03T09:25:20.359Z,1328
2017-02-03T09:26:00.984Z,1344
2017-02-03T09:26:41.633Z,1328
2017-02-03T09:27:23.228Z,1316
2017-02-03T09:28:03.869Z,1300
2017-02-03T09:28:44.530Z,1236
2017-02-03T09:29:25.179Z,1184
2017-02-03T09:30:05.732Z,1176
2017-02-03T09:30:46.391Z,1160
2017-02-03T09:31:28.984Z,1128
2017-02-03T09:32:09.559Z,1080
2017-02-03T09:32:50.185Z,1044
2017-02-03T09:33:30.836Z,1048
2017-02-03T09:34:11.396Z,1068
2017-02-03T09:34:52.040Z,1076
2017-02-03T09:35:32.604Z,1068
2017-02-03T09:36:13.255Z,1052
2017-02-03T09:36:53.897Z,1040
2017-02-03T09:37:35.155Z,1028
2017-02-03T09:38:16.740Z,1036
2017-02-03T09:38:57.389Z,1044
2017-02-03T09:39:37.943Z,1040
2017-02-03T09:40:18.596Z,1028
2017-02-03T09:40:59.247Z,1024
2017-02-03T09:41:39.808Z,1028
2017-02-03T09:42:20.394Z,1044
2017-02-03T09:43:00.990Z,1064
2017-02-03T09:43:41.654Z,1072
2017-02-03T09:44:22.802Z,1076
2017-02-03T09:45:03.421Z,1088
2017-02-03T09:45:44.015Z,1116
2017-02-03T09:46:25.695Z,1144
2017-02-03T09:47:06.283Z,1180